Cargill, Canada
Current Conditions -  °F | °C
As of 12:00 AM on Sunday 26 Oct 2014 (Local Time) from CYVV Reporting Station
Overcast Overcast  
Wind Chill: 52°   Ceiling: 5500
Heat Index: 52°   Visibility: 15mi
Dew Point: 39°   Wind: 14mph
Humidity: 62%   Direction: 290°WNW
Pressure: 29.64"   Gusts: 28mph
Location:  44.2°N, 81.23°W
Report Text: CYVV 260400Z 29012G24KT 260V320 15SM OVC055 11/04 A2964 RMK SC8SLP039
Loading
Personal Weather Stations






























Interactive Weather Map
Tropical Storm Tracking
New forecast layout! Learn more

10-Day Weather Forecast

Advertisements
Track Severe Weather on mobile